createdAt,value
2022-11-24T00:01:51.868Z,4.13
2022-11-24T00:04:20.669Z,4.50
2022-11-24T00:06:48.951Z,4.75
2022-11-24T00:09:17.517Z,4.55
2022-11-24T00:11:46.457Z,4.80
2022-11-24T00:14:14.827Z,4.57
2022-11-24T00:16:44.667Z,4.28
2022-11-24T00:19:18.355Z,4.10
2022-11-24T00:21:48.095Z,3.85
2022-11-24T00:24:16.620Z,3.63
2022-11-24T00:26:44.968Z,3.75
2022-11-24T00:29:13.935Z,4.20
2022-11-24T00:31:44.334Z,3.95
2022-11-24T00:34:15.594Z,4.13
2022-11-24T00:36:44.274Z,3.80
2022-11-24T00:39:15.046Z,4.78
2022-11-24T00:41:45.842Z,4.13
2022-11-24T00:44:14.836Z,5.15
2022-11-24T00:46:44.758Z,4.63
2022-11-24T00:49:13.132Z,4.03
2022-11-24T00:51:41.940Z,4.55
2022-11-24T00:54:10.341Z,4.85
2022-11-24T00:56:38.823Z,4.72
2022-11-24T00:59:07.815Z,3.83
2022-11-24T01:01:36.236Z,4.22
2022-11-24T01:04:06.095Z,3.88
2022-11-24T01:06:35.734Z,4.07
2022-11-24T01:09:05.277Z,3.67
2022-11-24T01:11:50.560Z,4.82
2022-11-24T01:14:19.680Z,5.22
2022-11-24T01:16:47.990Z,3.75
2022-11-24T01:19:17.787Z,4.82
2022-11-24T01:21:46.754Z,4.40
2022-11-24T01:24:15.797Z,4.25
2022-11-24T01:26:44.157Z,5.18
2022-11-24T01:29:13.372Z,4.20
2022-11-24T01:31:42.108Z,4.47
2022-11-24T01:34:10.499Z,6.40
2022-11-24T01:36:40.718Z,4.88
2022-11-24T01:39:09.006Z,5.15
2022-11-24T01:41:37.531Z,5.60
2022-11-24T01:44:23.338Z,5.80
2022-11-24T01:46:58.615Z,4.88
2022-11-24T01:49:37.548Z,5.80
2022-11-24T01:52:14.026Z,5.25
2022-11-24T01:54:47.250Z,5.63
2022-11-24T01:57:23.174Z,4.55
2022-11-24T01:59:56.510Z,4.35
2022-11-24T02:02:29.520Z,5.40
2022-11-24T02:05:01.155Z,6.57
2022-11-24T02:07:31.694Z,6.13
2022-11-24T02:10:08.028Z,6.00
2022-11-24T02:12:37.915Z,5.45
2022-11-24T02:15:08.422Z,6.07
2022-11-24T02:17:37.455Z,5.35
2022-11-24T02:20:09.500Z,4.97
2022-11-24T02:22:48.810Z,5.70
2022-11-24T02:25:30.561Z,5.53
2022-11-24T02:28:01.865Z,4.93
2022-11-24T02:30:30.437Z,5.03
2022-11-24T02:32:59.126Z,4.40
2022-11-24T02:35:29.562Z,4.82
2022-11-24T02:37:57.910Z,5.20
2022-11-24T02:40:31.037Z,4.85
2022-11-24T02:43:08.545Z,5.43
2022-11-24T02:45:37.143Z,5.32
2022-11-24T02:48:06.229Z,6.45
2022-11-24T02:50:34.533Z,5.70
2022-11-24T02:53:02.852Z,4.85
2022-11-24T02:55:31.201Z,4.00
2022-11-24T02:58:01.291Z,4.80
2022-11-24T03:00:30.040Z,5.68
2022-11-24T03:02:58.423Z,5.72
2022-11-24T03:05:26.834Z,4.65
2022-11-24T03:07:55.210Z,5.53
2022-11-24T03:10:24.379Z,5.80
2022-11-24T03:12:52.630Z,6.43
2022-11-24T03:15:23.640Z,5.40
2022-11-24T03:17:52.087Z,5.63
2022-11-24T03:20:20.666Z,5.95
2022-11-24T03:22:50.041Z,5.72
2022-11-24T03:25:18.807Z,6.07
2022-11-24T03:27:47.679Z,6.03
2022-11-24T03:30:16.867Z,6.47
2022-11-24T03:32:46.895Z,6.70
2022-11-24T03:35:15.740Z,5.60
2022-11-24T03:37:44.077Z,5.32
2022-11-24T03:40:13.723Z,7.05
2022-11-24T03:42:42.095Z,5.45
2022-11-24T03:45:37.932Z,5.50
2022-11-24T03:48:01.239Z,6.97
2022-11-24T03:50:29.706Z,6.45
2022-11-24T03:52:58.426Z,5.95
2022-11-24T03:55:26.758Z,6.32
2022-11-24T03:57:55.062Z,5.78
2022-11-24T04:00:23.756Z,5.97
2022-11-24T04:02:52.250Z,5.30
2022-11-24T04:05:22.110Z,6.72
2022-11-24T04:07:50.544Z,6.07
2022-11-24T04:10:19.078Z,6.38
2022-11-24T04:12:46.664Z,5.72
2022-11-24T04:15:18.708Z,6.68
2022-11-24T04:17:48.515Z,6.65
2022-11-24T04:20:18.144Z,5.63
2022-11-24T04:22:48.785Z,5.93
2022-11-24T04:25:17.689Z,5.00
2022-11-24T04:27:46.131Z,6.43
2022-11-24T04:30:14.531Z,5.90
2022-11-24T04:32:42.737Z,5.25
2022-11-24T04:35:11.768Z,5.80
2022-11-24T04:37:40.194Z,6.45
2022-11-24T04:40:12.932Z,6.43
2022-11-24T04:45:09.909Z,6.93
2022-11-24T04:47:38.926Z,6.60
2022-11-24T04:50:08.817Z,6.13
2022-11-24T04:52:37.212Z,6.95
2022-11-24T04:55:06.078Z,6.78
2022-11-24T04:57:35.538Z,5.63
2022-11-24T05:00:04.858Z,7.10
2022-11-24T05:02:33.057Z,6.07
2022-11-24T05:05:01.465Z,8.45
2022-11-24T05:07:30.733Z,6.35
2022-11-24T05:10:16.789Z,7.03
2022-11-24T05:12:51.175Z,6.65
2022-11-24T05:15:19.722Z,6.53
2022-11-24T05:17:47.981Z,5.15
2022-11-24T05:20:16.345Z,6.65
2022-11-24T05:22:45.558Z,6.28
2022-11-24T05:25:14.246Z,4.90
2022-11-24T05:27:43.040Z,3.92
2022-11-24T05:30:14.060Z,5.80
2022-11-24T05:32:42.556Z,3.05
2022-11-24T05:35:11.017Z,3.08
2022-11-24T05:37:39.203Z,2.15
2022-11-24T05:40:08.970Z,2.78
2022-11-24T05:42:47.340Z,2.72
2022-11-24T05:45:21.563Z,2.08
2022-11-24T05:47:51.247Z,2.17
2022-11-24T05:50:22.041Z,2.40
2022-11-24T05:52:52.051Z,2.75
2022-11-24T05:55:20.491Z,2.53
2022-11-24T05:57:49.201Z,2.85
2022-11-24T06:00:20.131Z,2.65
2022-11-24T06:02:50.575Z,2.53
2022-11-24T06:05:20.216Z,1.83
2022-11-24T06:07:49.094Z,2.17
2022-11-24T06:10:18.834Z,1.98
2022-11-24T06:12:47.471Z,1.60
2022-11-24T06:15:15.597Z,1.70
2022-11-24T06:17:45.682Z,2.63
2022-11-24T06:20:13.910Z,2.05
2022-11-24T06:22:42.069Z,2.47
2022-11-24T06:25:10.862Z,1.90
2022-11-24T06:27:40.552Z,2.30
2022-11-24T06:30:10.632Z,2.00
2022-11-24T06:32:40.202Z,2.17
2022-11-24T06:35:12.408Z,2.47
2022-11-24T06:37:40.615Z,2.55
2022-11-24T06:40:10.297Z,2.88
2022-11-24T06:42:39.010Z,2.92
2022-11-24T06:45:09.881Z,3.33
2022-11-24T06:47:38.070Z,3.03
2022-11-24T06:50:07.703Z,3.30
2022-11-24T06:52:37.293Z,2.65
2022-11-24T06:55:06.696Z,2.95
2022-11-24T06:57:35.253Z,3.03
2022-11-24T07:00:05.039Z,3.13
2022-11-24T07:02:33.297Z,3.63
2022-11-24T07:05:01.846Z,3.65
2022-11-24T07:07:30.095Z,3.50
2022-11-24T07:09:59.638Z,3.67
2022-11-24T07:12:29.159Z,4.25
2022-11-24T07:14:57.453Z,4.13
2022-11-24T07:17:25.576Z,5.07
2022-11-24T07:19:53.811Z,5.13
2022-11-24T07:22:21.979Z,3.90
2022-11-24T07:24:50.139Z,4.07
2022-11-24T07:27:20.152Z,4.13
2022-11-24T07:29:49.499Z,3.67
2022-11-24T07:32:17.860Z,4.63
2022-11-24T07:34:46.143Z,4.05
2022-11-24T07:37:14.308Z,4.05
2022-11-24T07:39:42.474Z,4.32
2022-11-24T07:42:11.361Z,4.55
2022-11-24T07:44:40.819Z,3.95
2022-11-24T07:47:09.123Z,4.97
2022-11-24T07:49:37.339Z,5.47
2022-11-24T07:52:06.088Z,4.70
2022-11-24T07:54:34.750Z,4.25
2022-11-24T07:57:03.377Z,4.60
2022-11-24T07:59:31.791Z,4.57
2022-11-24T08:02:01.760Z,5.00
2022-11-24T08:04:29.994Z,4.07
2022-11-24T08:06:58.107Z,3.08
2022-11-24T08:09:26.573Z,4.35
2022-11-24T08:11:54.985Z,3.95
2022-11-24T08:14:23.192Z,4.35
2022-11-24T08:16:51.468Z,4.30
2022-11-24T08:19:22.586Z,5.25
2022-11-24T08:21:50.926Z,4.28
2022-11-24T08:24:19.258Z,4.32
2022-11-24T08:26:47.633Z,4.50
2022-11-24T08:29:16.992Z,3.55
2022-11-24T08:31:45.341Z,3.83
2022-11-24T08:34:13.712Z,4.38
2022-11-24T08:36:43.517Z,4.25
2022-11-24T08:39:12.961Z,4.05
2022-11-24T08:41:41.167Z,4.40
2022-11-24T08:44:10.772Z,3.42
2022-11-24T08:46:39.229Z,4.88
2022-11-24T08:49:07.569Z,4.35
2022-11-24T08:51:35.895Z,4.13
2022-11-24T08:54:06.969Z,3.60
2022-11-24T08:56:35.565Z,4.75
2022-11-24T08:59:04.510Z,4.43
2022-11-24T09:01:33.000Z,3.03
2022-11-24T09:04:02.198Z,3.88
2022-11-24T09:06:31.536Z,3.00
2022-11-24T09:09:00.705Z,4.60
2022-11-24T09:11:31.068Z,3.88
2022-11-24T09:13:59.331Z,3.40
2022-11-24T09:16:30.231Z,4.65
2022-11-24T09:19:01.172Z,4.57
2022-11-24T09:21:31.171Z,4.35
2022-11-24T09:24:00.399Z,4.32
2022-11-24T09:26:32.223Z,4.38
2022-11-24T09:29:02.420Z,3.63
2022-11-24T09:31:33.570Z,4.35
2022-11-24T09:34:02.438Z,3.13
2022-11-24T09:36:31.767Z,4.68
2022-11-24T09:39:00.335Z,3.83
2022-11-24T09:41:40.390Z,3.58
2022-11-24T09:44:40.868Z,3.25
2022-11-24T09:47:19.594Z,4.10
2022-11-24T09:49:54.303Z,3.60
2022-11-24T09:52:36.359Z,4.70
2022-11-24T09:55:17.805Z,4.47
2022-11-24T09:57:55.409Z,3.47
2022-11-24T10:00:24.079Z,2.67
2022-11-24T10:02:52.669Z,3.53
2022-11-24T10:05:21.324Z,4.28
2022-11-24T10:08:03.587Z,3.15
2022-11-24T10:10:46.762Z,3.35
2022-11-24T10:13:37.043Z,4.72
2022-11-24T10:16:18.645Z,3.78
2022-11-24T10:19:01.815Z,2.97
2022-11-24T10:21:52.624Z,4.18
2022-11-24T10:24:57.632Z,4.90
2022-11-24T10:27:31.452Z,4.22
2022-11-24T10:30:02.444Z,4.45
2022-11-24T10:32:37.796Z,2.88
2022-11-24T10:35:18.976Z,3.85
2022-11-24T10:37:59.090Z,3.08
2022-11-24T10:43:29.286Z,4.43
2022-11-24T10:46:10.766Z,4.10
2022-11-24T10:48:46.099Z,4.00
2022-11-24T10:51:42.640Z,3.45
2022-11-24T10:54:18.227Z,3.75
2022-11-24T10:56:48.678Z,3.38
2022-11-24T10:59:39.408Z,3.15
2022-11-24T11:02:38.446Z,4.10
2022-11-24T11:05:28.960Z,3.85
2022-11-24T11:08:20.885Z,4.18
2022-11-24T11:10:51.603Z,4.22
2022-11-24T11:13:26.423Z,3.72
2022-11-24T11:15:56.347Z,4.00
2022-11-24T11:18:33.878Z,3.17
2022-11-24T11:21:04.689Z,4.72
2022-11-24T11:23:36.231Z,3.80
2022-11-24T11:26:31.976Z,3.03
2022-11-24T11:34:53.428Z,4.32
2022-11-24T11:37:25.040Z,4.28
2022-11-24T11:39:55.780Z,4.30
2022-11-24T11:43:00.721Z,4.75
2022-11-24T11:45:28.907Z,3.80
2022-11-24T11:48:09.522Z,5.53
2022-11-24T11:51:21.019Z,4.45
2022-11-24T11:53:45.236Z,5.50
2022-11-24T11:56:25.435Z,4.10
2022-11-24T11:59:50.012Z,4.35
2022-11-24T12:02:48.472Z,4.40
2022-11-24T12:05:31.600Z,4.47
2022-11-24T12:08:21.279Z,3.92
2022-11-24T12:10:59.482Z,7.82
2022-11-24T12:14:04.325Z,4.53
2022-11-24T12:16:46.547Z,3.70
2022-11-24T12:19:35.112Z,4.28
2022-11-24T12:22:15.826Z,2.80
2022-11-24T12:24:55.413Z,3.50
2022-11-24T12:27:39.277Z,4.22
2022-11-24T12:30:13.724Z,3.28
2022-11-24T12:33:12.780Z,3.70
2022-11-24T12:35:45.773Z,3.80
2022-11-24T12:38:33.900Z,4.60
2022-11-24T12:41:40.966Z,3.95
2022-11-24T12:44:26.276Z,4.85
2022-11-24T12:47:03.605Z,3.55
2022-11-24T12:49:43.831Z,3.75
2022-11-24T12:52:24.829Z,5.22
2022-11-24T12:54:53.890Z,3.70
2022-11-24T12:57:29.478Z,3.90
2022-11-24T13:00:06.116Z,4.45
2022-11-24T13:02:56.585Z,4.13
2022-11-24T13:05:33.007Z,4.55
2022-11-24T13:08:05.417Z,3.60
2022-11-24T13:13:55.744Z,3.33
2022-11-24T13:16:53.556Z,4.53
2022-11-24T13:19:18.044Z,3.70
2022-11-24T13:22:04.592Z,4.13
2022-11-24T13:24:37.047Z,4.68
2022-11-24T13:27:45.438Z,3.28
2022-11-24T13:30:59.295Z,3.47
2022-11-24T13:33:35.153Z,4.00
2022-11-24T13:36:48.597Z,4.78
2022-11-24T13:39:22.840Z,3.92
2022-11-24T13:42:41.816Z,4.88
2022-11-24T13:45:01.753Z,3.08
2022-11-24T13:47:40.880Z,3.67
2022-11-24T13:50:44.731Z,3.92
2022-11-24T13:53:23.314Z,3.83
2022-11-24T13:55:59.210Z,4.05
2022-11-24T13:58:38.711Z,4.43
2022-11-24T14:01:19.957Z,4.03
2022-11-24T14:04:29.793Z,3.90
2022-11-24T14:07:09.824Z,4.32
2022-11-24T14:09:43.631Z,3.92
2022-11-24T14:12:18.946Z,3.85
2022-11-24T14:14:49.711Z,3.63
2022-11-24T14:17:22.948Z,3.58
2022-11-24T14:19:53.726Z,3.42
2022-11-24T14:22:26.997Z,3.95
2022-11-24T14:24:58.588Z,3.47
2022-11-24T14:27:31.355Z,4.35
2022-11-24T14:30:02.347Z,4.30
2022-11-24T14:32:31.012Z,4.32
2022-11-24T14:34:59.323Z,4.57
2022-11-24T14:37:29.210Z,4.13
2022-11-24T14:39:57.548Z,4.53
2022-11-24T14:42:28.539Z,4.18
2022-11-24T14:44:59.525Z,4.18
2022-11-24T14:47:32.602Z,3.53
2022-11-24T14:50:12.852Z,3.25
2022-11-24T14:52:54.565Z,3.28
2022-11-24T14:55:29.299Z,4.15
2022-11-24T14:57:57.826Z,4.47
2022-11-24T15:00:31.769Z,4.00
2022-11-24T15:03:17.084Z,3.65
2022-11-24T15:05:56.320Z,3.70
2022-11-24T15:08:28.736Z,3.95
2022-11-24T15:11:00.404Z,4.28
2022-11-24T15:13:30.422Z,3.70
2022-11-24T15:16:03.555Z,3.78
2022-11-24T15:18:41.947Z,4.93
2022-11-24T15:21:15.741Z,4.07
2022-11-24T15:24:07.946Z,4.03
2022-11-24T15:26:41.987Z,3.20
2022-11-24T15:29:11.348Z,3.72
2022-11-24T15:31:40.497Z,3.53
2022-11-24T15:34:13.695Z,3.90
2022-11-24T15:36:43.067Z,4.15
2022-11-24T15:39:12.825Z,3.97
2022-11-24T15:41:42.723Z,3.65
2022-11-24T15:44:11.801Z,3.75
2022-11-24T15:46:40.555Z,3.53
2022-11-24T15:49:08.755Z,3.67
2022-11-24T15:51:46.256Z,4.30
2022-11-24T15:54:18.725Z,4.00
2022-11-24T15:56:47.537Z,3.33
2022-11-24T15:59:21.158Z,4.93
2022-11-24T16:01:50.769Z,4.00
2022-11-24T16:04:20.295Z,3.70
2022-11-24T16:06:48.692Z,3.58
2022-11-24T16:09:20.012Z,3.88
2022-11-24T16:11:48.552Z,3.58
2022-11-24T16:14:17.062Z,4.03
2022-11-24T16:16:45.488Z,3.60
2022-11-24T16:19:15.733Z,4.55
2022-11-24T16:21:44.642Z,4.72
2022-11-24T16:24:12.997Z,3.88
2022-11-24T16:26:43.061Z,4.13
2022-11-24T16:29:11.471Z,4.22
2022-11-24T16:31:43.391Z,4.32
2022-11-24T16:34:12.152Z,3.40
2022-11-24T16:36:40.661Z,3.88
2022-11-24T16:39:09.115Z,3.38
2022-11-24T16:41:37.619Z,4.20
2022-11-24T16:44:07.279Z,3.17
2022-11-24T16:46:36.113Z,3.65
2022-11-24T16:49:04.407Z,3.55
2022-11-24T16:51:34.976Z,4.45
2022-11-24T16:54:05.213Z,4.97
2022-11-24T16:56:33.949Z,4.10
2022-11-24T16:59:02.401Z,4.32
2022-11-24T17:01:33.880Z,4.57
2022-11-24T17:04:07.025Z,4.68
2022-11-24T17:06:37.908Z,4.47
2022-11-24T17:09:06.721Z,3.88
2022-11-24T17:11:35.076Z,4.55
2022-11-24T17:14:03.373Z,3.88
2022-11-24T17:16:33.223Z,4.18
2022-11-24T17:19:01.470Z,4.65
2022-11-24T17:21:32.130Z,4.38
2022-11-24T17:24:05.476Z,4.65
2022-11-24T17:26:35.241Z,4.38
2022-11-24T17:29:03.970Z,4.05
2022-11-24T17:31:35.785Z,3.85
2022-11-24T17:34:07.867Z,2.70
2022-11-24T17:36:36.505Z,3.83
2022-11-24T17:39:08.181Z,3.38
2022-11-24T17:41:36.427Z,5.00
2022-11-24T17:44:06.143Z,4.25
2022-11-24T17:46:37.077Z,3.60
2022-11-24T17:49:06.631Z,3.70
2022-11-24T17:51:35.050Z,3.25
2022-11-24T17:54:18.677Z,4.05
2022-11-24T17:56:51.539Z,2.92
2022-11-24T17:59:21.005Z,3.65
2022-11-24T18:01:50.578Z,3.30
2022-11-24T18:04:18.985Z,3.17
2022-11-24T18:06:47.709Z,3.95
2022-11-24T18:09:16.049Z,3.15
2022-11-24T18:11:44.685Z,3.22
2022-11-24T18:14:13.478Z,3.45
2022-11-24T18:16:41.776Z,4.07
2022-11-24T18:19:11.992Z,5.03
2022-11-24T18:21:41.605Z,6.00
2022-11-24T18:24:12.930Z,4.63
2022-11-24T18:26:42.760Z,4.03
2022-11-24T18:29:12.066Z,11.98
2022-11-24T18:31:40.696Z,10.35
2022-11-24T18:34:09.629Z,3.72
2022-11-24T18:36:39.468Z,4.03
2022-11-24T18:39:09.563Z,3.70
2022-11-24T18:41:38.401Z,3.55
2022-11-24T18:44:08.676Z,3.75
2022-11-24T18:46:37.470Z,4.55
2022-11-24T18:49:07.350Z,4.85
2022-11-24T18:51:36.397Z,3.83
2022-11-24T18:54:06.513Z,4.35
2022-11-24T18:56:35.841Z,3.92
2022-11-24T18:59:05.487Z,4.00
2022-11-24T19:01:33.902Z,3.53
2022-11-24T19:04:03.423Z,4.20
2022-11-24T19:06:34.224Z,3.55
2022-11-24T19:09:06.959Z,3.45
2022-11-24T19:14:09.774Z,3.40
2022-11-24T19:16:39.456Z,3.95
2022-11-24T19:19:08.681Z,4.75
2022-11-24T19:21:40.723Z,3.35
2022-11-24T19:24:13.070Z,3.17
2022-11-24T19:29:10.135Z,3.63
2022-11-24T19:31:40.715Z,3.10
2022-11-24T19:34:10.661Z,3.38
2022-11-24T19:36:40.463Z,3.67
2022-11-24T19:39:14.959Z,3.70
2022-11-24T19:41:43.881Z,3.65
2022-11-24T19:44:13.321Z,3.20
2022-11-24T19:46:42.371Z,4.32
2022-11-24T19:49:11.113Z,5.60
2022-11-24T19:51:41.043Z,2.97
2022-11-24T19:54:13.696Z,3.67
2022-11-24T19:59:15.182Z,4.40
2022-11-24T20:01:43.751Z,3.30
2022-11-24T20:04:15.370Z,3.40
2022-11-24T20:06:46.088Z,2.80
2022-11-24T20:09:18.924Z,3.67
2022-11-24T20:11:48.570Z,4.05
2022-11-24T20:14:18.932Z,3.28
2022-11-24T20:16:47.709Z,3.80
2022-11-24T20:19:18.833Z,4.38
2022-11-24T20:21:50.231Z,3.30
2022-11-24T20:24:23.203Z,3.45
2022-11-24T20:26:54.324Z,3.45
2022-11-24T20:29:28.303Z,3.55
2022-11-24T20:32:02.553Z,3.28
2022-11-24T20:35:03.929Z,4.00
2022-11-24T20:37:33.136Z,3.53
2022-11-24T20:40:04.612Z,4.05
2022-11-24T20:42:35.411Z,3.08
2022-11-24T20:45:03.821Z,3.22
2022-11-24T20:47:32.319Z,3.80
2022-11-24T20:50:01.549Z,3.97
2022-11-24T20:52:29.726Z,3.20
2022-11-24T20:55:00.288Z,3.40
2022-11-24T20:57:30.114Z,3.40
2022-11-24T20:59:58.480Z,3.38
2022-11-24T21:02:26.972Z,3.83
2022-11-24T21:04:55.183Z,3.72
2022-11-24T21:07:23.459Z,3.97
2022-11-24T21:09:52.293Z,4.47
2022-11-24T21:12:20.660Z,4.18
2022-11-24T21:14:51.695Z,3.38
2022-11-24T21:17:21.545Z,4.25
2022-11-24T21:19:49.775Z,3.88
2022-11-24T21:22:18.044Z,4.65
2022-11-24T21:24:46.365Z,4.03
2022-11-24T21:27:14.973Z,4.13
2022-11-24T21:29:43.250Z,4.05
2022-11-24T21:32:13.047Z,3.90
2022-11-24T21:34:41.280Z,4.55
2022-11-24T21:37:10.513Z,3.80
2022-11-24T21:39:38.803Z,3.83
2022-11-24T21:42:07.584Z,4.68
2022-11-24T21:44:36.895Z,4.35
2022-11-24T21:47:05.460Z,3.53
2022-11-24T21:49:35.162Z,3.90
2022-11-24T21:52:03.689Z,3.53
2022-11-24T21:54:32.153Z,4.15
2022-11-24T21:57:00.574Z,4.32
2022-11-24T21:59:28.782Z,4.13
2022-11-24T22:01:57.438Z,4.07
2022-11-24T22:04:25.804Z,3.15
2022-11-24T22:06:55.838Z,4.45
2022-11-24T22:09:24.674Z,3.92
2022-11-24T22:11:53.139Z,4.13
2022-11-24T22:14:21.323Z,4.03
2022-11-24T22:16:49.770Z,4.18
2022-11-24T22:19:18.924Z,3.80
2022-11-24T22:21:47.555Z,4.30
2022-11-24T22:24:17.255Z,4.20
2022-11-24T22:26:45.557Z,3.97
2022-11-24T22:29:14.308Z,3.97
2022-11-24T22:31:42.751Z,4.20
2022-11-24T22:34:11.712Z,4.05
2022-11-24T22:36:39.883Z,3.78
2022-11-24T22:39:11.787Z,4.28
2022-11-24T22:41:41.700Z,4.45
2022-11-24T22:44:10.162Z,3.33
2022-11-24T22:46:38.430Z,3.92
2022-11-24T22:49:06.763Z,3.25
2022-11-24T22:51:35.999Z,3.80
2022-11-24T22:54:06.488Z,3.58
2022-11-24T22:56:35.187Z,3.65
2022-11-24T22:59:05.704Z,3.05
2022-11-24T23:01:35.582Z,3.15
2022-11-24T23:04:04.296Z,3.42
2022-11-24T23:06:34.545Z,3.58
2022-11-24T23:09:04.870Z,3.28
2022-11-24T23:11:38.505Z,3.33
2022-11-24T23:14:12.984Z,3.80
2022-11-24T23:16:41.280Z,3.38
2022-11-24T23:19:09.958Z,3.63
2022-11-24T23:21:40.518Z,3.42
2022-11-24T23:24:11.518Z,3.83
2022-11-24T23:26:41.881Z,3.60
2022-11-24T23:29:12.778Z,3.65
2022-11-24T23:31:41.073Z,3.90
2022-11-24T23:34:09.559Z,3.50
2022-11-24T23:36:38.024Z,3.65
2022-11-24T23:39:08.486Z,4.05
2022-11-24T23:41:37.376Z,3.40
2022-11-24T23:44:06.578Z,3.40
2022-11-24T23:46:36.577Z,3.80
2022-11-24T23:49:05.360Z,3.42
2022-11-24T23:51:34.654Z,3.72
2022-11-24T23:54:02.993Z,3.53
2022-11-24T23:56:33.572Z,3.25
2022-11-24T23:59:02.944Z,4.35
